sensor_id;sensor_type;location;lat;lon;timestamp;temperature;humidity
65876;HTU21D;52657;51.128;5.938;2023-06-10T00:00:03;25.69;44.41
65876;HTU21D;52657;51.128;5.938;2023-06-10T00:02:38;25.67;44.46
65876;HTU21D;52657;51.128;5.938;2023-06-10T00:05:04;25.63;44.51
65876;HTU21D;52657;51.128;5.938;2023-06-10T00:07:31;25.64;44.61
65876;HTU21D;52657;51.128;5.938;2023-06-10T00:10:07;25.63;44.62
65876;HTU21D;52657;51.128;5.938;2023-06-10T00:12:33;25.61;44.68
65876;HTU21D;52657;51.128;5.938;2023-06-10T00:15:04;25.57;44.77
65876;HTU21D;52657;51.128;5.938;2023-06-10T00:17:30;25.52;44.88
65876;HTU21D;52657;51.128;5.938;2023-06-10T00:19:58;25.51;44.93
65876;HTU21D;52657;51.128;5.938;2023-06-10T00:22:24;25.50;44.89
65876;HTU21D;52657;51.128;5.938;2023-06-10T00:24:55;25.49;44.91
65876;HTU21D;52657;51.128;5.938;2023-06-10T00:27:22;25.47;44.99
65876;HTU21D;52657;51.128;5.938;2023-06-10T00:29:48;25.39;45.08
65876;HTU21D;52657;51.128;5.938;2023-06-10T00:32:19;25.36;45.25
65876;HTU21D;52657;51.128;5.938;2023-06-10T00:35:00;25.34;45.32
65876;HTU21D;52657;51.128;5.938;2023-06-10T00:37:26;25.33;45.43
65876;HTU21D;52657;51.128;5.938;2023-06-10T00:39:55;25.33;45.41
65876;HTU21D;52657;51.128;5.938;2023-06-10T00:42:22;25.30;45.51
65876;HTU21D;52657;51.128;5.938;2023-06-10T00:44:54;25.22;45.67
65876;HTU21D;52657;51.128;5.938;2023-06-10T00:47:21;25.17;45.80
65876;HTU21D;52657;51.128;5.938;2023-06-10T00:49:50;25.13;45.96
65876;HTU21D;52657;51.128;5.938;2023-06-10T00:52:16;25.06;46.10
65876;HTU21D;52657;51.128;5.938;2023-06-10T00:54:44;25.02;46.25
65876;HTU21D;52657;51.128;5.938;2023-06-10T00:57:12;24.99;46.47
65876;HTU21D;52657;51.128;5.938;2023-06-10T00:59:41;24.97;46.68
65876;HTU21D;52657;51.128;5.938;2023-06-10T01:02:09;24.94;46.80
65876;HTU21D;52657;51.128;5.938;2023-06-10T01:04:34;24.91;46.88
65876;HTU21D;52657;51.128;5.938;2023-06-10T01:07:25;24.87;47.05
65876;HTU21D;52657;51.128;5.938;2023-06-10T01:12:52;24.70;47.26
65876;HTU21D;52657;51.128;5.938;2023-06-10T01:15:22;24.62;47.39
65876;HTU21D;52657;51.128;5.938;2023-06-10T01:17:58;24.59;47.57
65876;HTU21D;52657;51.128;5.938;2023-06-10T01:20:38;24.56;47.70
65876;HTU21D;52657;51.128;5.938;2023-06-10T01:23:10;24.53;47.75
65876;HTU21D;52657;51.128;5.938;2023-06-10T01:25:45;24.46;47.98
65876;HTU21D;52657;51.128;5.938;2023-06-10T01:28:40;24.44;48.02
65876;HTU21D;52657;51.128;5.938;2023-06-10T01:31:16;24.40;48.16
65876;HTU21D;52657;51.128;5.938;2023-06-10T01:33:51;24.36;48.19
65876;HTU21D;52657;51.128;5.938;2023-06-10T01:36:19;24.33;48.24
65876;HTU21D;52657;51.128;5.938;2023-06-10T01:38:53;24.27;48.33
65876;HTU21D;52657;51.128;5.938;2023-06-10T01:41:19;24.21;48.47
65876;HTU21D;52657;51.128;5.938;2023-06-10T01:43:48;24.18;48.78
65876;HTU21D;52657;51.128;5.938;2023-06-10T01:46:20;24.11;49.11
65876;HTU21D;52657;51.128;5.938;2023-06-10T01:48:49;24.02;49.17
65876;HTU21D;52657;51.128;5.938;2023-06-10T01:51:21;23.99;49.28
65876;HTU21D;52657;51.128;5.938;2023-06-10T01:53:49;23.98;49.31
65876;HTU21D;52657;51.128;5.938;2023-06-10T01:56:18;23.92;49.36
65876;HTU21D;52657;51.128;5.938;2023-06-10T01:58:46;23.89;49.55
65876;HTU21D;52657;51.128;5.938;2023-06-10T02:01:22;23.85;49.59
65876;HTU21D;52657;51.128;5.938;2023-06-10T02:03:48;23.82;49.62
65876;HTU21D;52657;51.128;5.938;2023-06-10T02:06:18;23.82;49.64
65876;HTU21D;52657;51.128;5.938;2023-06-10T02:08:43;23.80;49.71
65876;HTU21D;52657;51.128;5.938;2023-06-10T02:11:12;23.77;49.70
65876;HTU21D;52657;51.128;5.938;2023-06-10T02:13:40;23.77;49.76
65876;HTU21D;52657;51.128;5.938;2023-06-10T02:16:06;23.72;49.90
65876;HTU21D;52657;51.128;5.938;2023-06-10T02:18:33;23.66;50.11
65876;HTU21D;52657;51.128;5.938;2023-06-10T02:20:59;23.62;50.29
65876;HTU21D;52657;51.128;5.938;2023-06-10T02:23:28;23.59;50.14
65876;HTU21D;52657;51.128;5.938;2023-06-10T02:25:53;23.57;50.07
65876;HTU21D;52657;51.128;5.938;2023-06-10T02:28:24;23.56;50.15
65876;HTU21D;52657;51.128;5.938;2023-06-10T02:30:52;23.51;50.19
65876;HTU21D;52657;51.128;5.938;2023-06-10T02:33:17;23.47;50.34
65876;HTU21D;52657;51.128;5.938;2023-06-10T02:35:43;23.42;50.37
65876;HTU21D;52657;51.128;5.938;2023-06-10T02:38:12;23.40;50.41
65876;HTU21D;52657;51.128;5.938;2023-06-10T02:40:37;23.36;50.53
65876;HTU21D;52657;51.128;5.938;2023-06-10T02:43:03;23.34;50.55
65876;HTU21D;52657;51.128;5.938;2023-06-10T02:45:29;23.29;50.76
65876;HTU21D;52657;51.128;5.938;2023-06-10T02:48:09;23.24;50.78
65876;HTU21D;52657;51.128;5.938;2023-06-10T02:50:37;23.18;50.94
65876;HTU21D;52657;51.128;5.938;2023-06-10T02:53:20;23.14;50.92
65876;HTU21D;52657;51.128;5.938;2023-06-10T02:55:52;23.07;51.21
65876;HTU21D;52657;51.128;5.938;2023-06-10T02:58:19;23.03;51.26
65876;HTU21D;52657;51.128;5.938;2023-06-10T03:00:47;22.99;51.40
65876;HTU21D;52657;51.128;5.938;2023-06-10T03:03:14;22.95;51.45
65876;HTU21D;52657;51.128;5.938;2023-06-10T03:05:58;22.93;51.49
65876;HTU21D;52657;51.128;5.938;2023-06-10T03:08:27;22.93;51.40
65876;HTU21D;52657;51.128;5.938;2023-06-10T03:10:57;22.95;51.25
65876;HTU21D;52657;51.128;5.938;2023-06-10T03:13:23;22.91;51.34
65876;HTU21D;52657;51.128;5.938;2023-06-10T03:15:52;22.87;51.55
65876;HTU21D;52657;51.128;5.938;2023-06-10T03:18:21;22.85;51.56
65876;HTU21D;52657;51.128;5.938;2023-06-10T03:20:49;22.84;51.48
65876;HTU21D;52657;51.128;5.938;2023-06-10T03:23:21;22.80;51.58
65876;HTU21D;52657;51.128;5.938;2023-06-10T03:25:49;22.80;51.75
65876;HTU21D;52657;51.128;5.938;2023-06-10T03:28:18;22.76;51.93
65876;HTU21D;52657;51.128;5.938;2023-06-10T03:30:43;22.71;51.99
65876;HTU21D;52657;51.128;5.938;2023-06-10T03:33:13;22.68;51.96
65876;HTU21D;52657;51.128;5.938;2023-06-10T03:35:40;22.69;51.99
65876;HTU21D;52657;51.128;5.938;2023-06-10T03:38:05;22.66;52.11
65876;HTU21D;52657;51.128;5.938;2023-06-10T03:40:31;22.67;52.09
65876;HTU21D;52657;51.128;5.938;2023-06-10T03:43:09;22.66;52.24
65876;HTU21D;52657;51.128;5.938;2023-06-10T03:45:38;22.65;52.32
65876;HTU21D;52657;51.128;5.938;2023-06-10T03:48:04;22.63;52.51
65876;HTU21D;52657;51.128;5.938;2023-06-10T03:50:39;22.62;52.65
65876;HTU21D;52657;51.128;5.938;2023-06-10T03:53:05;22.64;52.62
65876;HTU21D;52657;51.128;5.938;2023-06-10T03:55:41;22.65;52.40
65876;HTU21D;52657;51.128;5.938;2023-06-10T03:58:07;22.64;52.46
65876;HTU21D;52657;51.128;5.938;2023-06-10T04:00:33;22.70;52.54
65876;HTU21D;52657;51.128;5.938;2023-06-10T04:03:09;22.86;52.43
65876;HTU21D;52657;51.128;5.938;2023-06-10T04:05:42;23.03;51.91
65876;HTU21D;52657;51.128;5.938;2023-06-10T04:08:08;23.27;51.22
65876;HTU21D;52657;51.128;5.938;2023-06-10T04:10:34;23.47;50.67
65876;HTU21D;52657;51.128;5.938;2023-06-10T04:13:00;23.72;50.05
65876;HTU21D;52657;51.128;5.938;2023-06-10T04:15:30;23.94;49.46
65876;HTU21D;52657;51.128;5.938;2023-06-10T04:17:59;24.16;49.04
65876;HTU21D;52657;51.128;5.938;2023-06-10T04:20:27;24.40;48.34
65876;HTU21D;52657;51.128;5.938;2023-06-10T04:23:01;24.64;47.55
65876;HTU21D;52657;51.128;5.938;2023-06-10T04:25:27;24.82;46.94
65876;HTU21D;52657;51.128;5.938;2023-06-10T04:27:54;24.99;46.50
65876;HTU21D;52657;51.128;5.938;2023-06-10T04:30:21;25.16;46.10
65876;HTU21D;52657;51.128;5.938;2023-06-10T04:32:48;25.27;45.72
65876;HTU21D;52657;51.128;5.938;2023-06-10T04:35:19;25.45;45.38
65876;HTU21D;52657;51.128;5.938;2023-06-10T04:37:54;25.68;44.83
65876;HTU21D;52657;51.128;5.938;2023-06-10T04:40:20;25.90;44.42
65876;HTU21D;52657;51.128;5.938;2023-06-10T04:42:46;26.06;43.92
65876;HTU21D;52657;51.128;5.938;2023-06-10T04:45:13;26.23;43.53
65876;HTU21D;52657;51.128;5.938;2023-06-10T04:47:45;26.49;43.04
65876;HTU21D;52657;51.128;5.938;2023-06-10T04:50:11;26.69;42.68
65876;HTU21D;52657;51.128;5.938;2023-06-10T04:52:37;26.81;41.86
65876;HTU21D;52657;51.128;5.938;2023-06-10T04:55:06;26.87;42.00
65876;HTU21D;52657;51.128;5.938;2023-06-10T04:57:31;27.01;41.72
65876;HTU21D;52657;51.128;5.938;2023-06-10T05:00:00;27.16;41.21
65876;HTU21D;52657;51.128;5.938;2023-06-10T05:02:28;27.28;41.07
65876;HTU21D;52657;51.128;5.938;2023-06-10T05:04:57;27.46;40.90
65876;HTU21D;52657;51.128;5.938;2023-06-10T05:07:23;27.51;40.02
65876;HTU21D;52657;51.128;5.938;2023-06-10T05:09:49;27.23;40.02
65876;HTU21D;52657;51.128;5.938;2023-06-10T05:12:18;26.81;41.09
65876;HTU21D;52657;51.128;5.938;2023-06-10T05:14:43;26.36;42.19
65876;HTU21D;52657;51.128;5.938;2023-06-10T05:17:15;25.97;43.25
65876;HTU21D;52657;51.128;5.938;2023-06-10T05:19:43;25.69;44.12
65876;HTU21D;52657;51.128;5.938;2023-06-10T05:22:11;25.38;45.23
65876;HTU21D;52657;51.128;5.938;2023-06-10T05:24:42;25.21;46.09
65876;HTU21D;52657;51.128;5.938;2023-06-10T05:27:11;25.09;46.35
65876;HTU21D;52657;51.128;5.938;2023-06-10T05:29:37;24.94;46.84
65876;HTU21D;52657;51.128;5.938;2023-06-10T05:32:03;24.82;47.24
65876;HTU21D;52657;51.128;5.938;2023-06-10T05:34:30;24.73;47.37
65876;HTU21D;52657;51.128;5.938;2023-06-10T05:36:58;24.70;48.03
65876;HTU21D;52657;51.128;5.938;2023-06-10T05:39:27;24.66;48.10
65876;HTU21D;52657;51.128;5.938;2023-06-10T05:41:55;24.61;48.28
65876;HTU21D;52657;51.128;5.938;2023-06-10T05:44:35;24.62;48.39
65876;HTU21D;52657;51.128;5.938;2023-06-10T05:47:05;24.60;48.37
65876;HTU21D;52657;51.128;5.938;2023-06-10T05:49:34;24.69;49.02
65876;HTU21D;52657;51.128;5.938;2023-06-10T05:51:59;25.06;48.66
65876;HTU21D;52657;51.128;5.938;2023-06-10T05:54:27;25.56;47.63
65876;HTU21D;52657;51.128;5.938;2023-06-10T05:56:58;26.11;46.58
65876;HTU21D;52657;51.128;5.938;2023-06-10T05:59:27;26.77;45.33
65876;HTU21D;52657;51.128;5.938;2023-06-10T06:02:01;27.39;43.84
65876;HTU21D;52657;51.128;5.938;2023-06-10T06:04:30;27.96;42.36
65876;HTU21D;52657;51.128;5.938;2023-06-10T06:06:59;28.37;41.29
65876;HTU21D;52657;51.128;5.938;2023-06-10T06:09:24;28.85;39.65
65876;HTU21D;52657;51.128;5.938;2023-06-10T06:11:52;29.04;38.96
65876;HTU21D;52657;51.128;5.938;2023-06-10T06:14:23;29.34;38.13
65876;HTU21D;52657;51.128;5.938;2023-06-10T06:16:55;29.63;37.36
65876;HTU21D;52657;51.128;5.938;2023-06-10T06:19:25;29.87;36.53
65876;HTU21D;52657;51.128;5.938;2023-06-10T06:21:56;30.17;36.06
65876;HTU21D;52657;51.128;5.938;2023-06-10T06:24:22;30.49;35.20
65876;HTU21D;52657;51.128;5.938;2023-06-10T06:26:47;30.80;34.12
65876;HTU21D;52657;51.128;5.938;2023-06-10T06:29:26;30.86;33.77
65876;HTU21D;52657;51.128;5.938;2023-06-10T06:31:55;31.09;33.74
65876;HTU21D;52657;51.128;5.938;2023-06-10T06:34:20;31.21;33.07
65876;HTU21D;52657;51.128;5.938;2023-06-10T06:36:46;31.37;33.16
65876;HTU21D;52657;51.128;5.938;2023-06-10T06:39:12;31.70;32.44
65876;HTU21D;52657;51.128;5.938;2023-06-10T06:41:41;31.74;32.08
65876;HTU21D;52657;51.128;5.938;2023-06-10T06:44:07;31.92;31.32
65876;HTU21D;52657;51.128;5.938;2023-06-10T06:46:37;31.75;31.46
65876;HTU21D;52657;51.128;5.938;2023-06-10T06:49:03;31.88;31.22
65876;HTU21D;52657;51.128;5.938;2023-06-10T06:51:28;32.08;30.89
65876;HTU21D;52657;51.128;5.938;2023-06-10T06:53:59;32.03;30.01
65876;HTU21D;52657;51.128;5.938;2023-06-10T06:56:28;32.10;30.13
65876;HTU21D;52657;51.128;5.938;2023-06-10T06:58:56;32.46;29.57
65876;HTU21D;52657;51.128;5.938;2023-06-10T07:01:25;32.56;28.84
65876;HTU21D;52657;51.128;5.938;2023-06-10T07:03:56;32.60;28.19
65876;HTU21D;52657;51.128;5.938;2023-06-10T07:06:22;32.62;28.52
65876;HTU21D;52657;51.128;5.938;2023-06-10T07:08:49;32.70;28.20
65876;HTU21D;52657;51.128;5.938;2023-06-10T07:11:30;32.78;27.63
65876;HTU21D;52657;51.128;5.938;2023-06-10T07:13:56;32.70;27.19
65876;HTU21D;52657;51.128;5.938;2023-06-10T07:16:22;32.70;27.53
65876;HTU21D;52657;51.128;5.938;2023-06-10T07:18:52;32.73;27.60
65876;HTU21D;52657;51.128;5.938;2023-06-10T07:21:20;32.78;27.58
65876;HTU21D;52657;51.128;5.938;2023-06-10T07:23:48;32.90;27.05
65876;HTU21D;52657;51.128;5.938;2023-06-10T07:26:17;32.83;27.13
65876;HTU21D;52657;51.128;5.938;2023-06-10T07:28:43;32.94;27.21
65876;HTU21D;52657;51.128;5.938;2023-06-10T07:31:09;33.03;27.16
65876;HTU21D;52657;51.128;5.938;2023-06-10T07:33:35;33.21;26.61
65876;HTU21D;52657;51.128;5.938;2023-06-10T07:36:05;33.15;26.52
65876;HTU21D;52657;51.128;5.938;2023-06-10T07:38:31;33.16;26.87
65876;HTU21D;52657;51.128;5.938;2023-06-10T07:40:57;33.30;26.46
65876;HTU21D;52657;51.128;5.938;2023-06-10T07:43:26;33.32;26.56
65876;HTU21D;52657;51.128;5.938;2023-06-10T07:45:54;33.38;26.03
65876;HTU21D;52657;51.128;5.938;2023-06-10T07:48:38;33.37;25.94
65876;HTU21D;52657;51.128;5.938;2023-06-10T07:51:04;33.28;26.14
65876;HTU21D;52657;51.128;5.938;2023-06-10T07:53:29;33.25;26.39
65876;HTU21D;52657;51.128;5.938;2023-06-10T07:56:00;33.42;25.94
65876;HTU21D;52657;51.128;5.938;2023-06-10T07:58:29;33.44;25.84
65876;HTU21D;52657;51.128;5.938;2023-06-10T08:00:54;33.38;26.22
65876;HTU21D;52657;51.128;5.938;2023-06-10T08:03:20;33.53;25.56
65876;HTU21D;52657;51.128;5.938;2023-06-10T08:05:46;33.46;25.96
65876;HTU21D;52657;51.128;5.938;2023-06-10T08:08:13;33.46;26.20
65876;HTU21D;52657;51.128;5.938;2023-06-10T08:10:39;33.48;25.93
65876;HTU21D;52657;51.128;5.938;2023-06-10T08:13:08;33.56;25.43
65876;HTU21D;52657;51.128;5.938;2023-06-10T08:15:37;33.56;25.11
65876;HTU21D;52657;51.128;5.938;2023-06-10T08:18:03;33.55;24.75
65876;HTU21D;52657;51.128;5.938;2023-06-10T08:20:28;33.47;25.22
65876;HTU21D;52657;51.128;5.938;2023-06-10T08:22:54;33.47;25.53
65876;HTU21D;52657;51.128;5.938;2023-06-10T08:25:20;33.55;25.53
65876;HTU21D;52657;51.128;5.938;2023-06-10T08:27:48;33.65;25.15
65876;HTU21D;52657;51.128;5.938;2023-06-10T08:30:13;33.62;24.97
65876;HTU21D;52657;51.128;5.938;2023-06-10T08:32:39;33.67;25.32
65876;HTU21D;52657;51.128;5.938;2023-06-10T08:35:05;33.80;24.94
65876;HTU21D;52657;51.128;5.938;2023-06-10T08:37:37;33.79;24.73
65876;HTU21D;52657;51.128;5.938;2023-06-10T08:40:03;33.63;24.59
65876;HTU21D;52657;51.128;5.938;2023-06-10T08:42:37;33.49;24.75
65876;HTU21D;52657;51.128;5.938;2023-06-10T08:45:05;33.48;24.78
65876;HTU21D;52657;51.128;5.938;2023-06-10T08:47:35;33.48;24.72
65876;HTU21D;52657;51.128;5.938;2023-06-10T08:50:03;33.45;24.66
65876;HTU21D;52657;51.128;5.938;2023-06-10T08:52:37;33.50;24.49
65876;HTU21D;52657;51.128;5.938;2023-06-10T08:55:08;33.55;24.58
65876;HTU21D;52657;51.128;5.938;2023-06-10T08:57:36;33.52;24.38
65876;HTU21D;52657;51.128;5.938;2023-06-10T09:00:03;33.48;24.11
65876;HTU21D;52657;51.128;5.938;2023-06-10T09:02:29;33.51;24.09
65876;HTU21D;52657;51.128;5.938;2023-06-10T09:04:59;33.71;24.17
65876;HTU21D;52657;51.128;5.938;2023-06-10T09:07:25;33.75;24.51
65876;HTU21D;52657;51.128;5.938;2023-06-10T09:09:54;33.79;24.70
65876;HTU21D;52657;51.128;5.938;2023-06-10T09:12:23;33.71;24.78
65876;HTU21D;52657;51.128;5.938;2023-06-10T09:14:52;33.63;25.19
65876;HTU21D;52657;51.128;5.938;2023-06-10T09:17:29;33.67;24.67
65876;HTU21D;52657;51.128;5.938;2023-06-10T09:19:55;33.64;24.84
65876;HTU21D;52657;51.128;5.938;2023-06-10T09:22:23;33.65;25.11
65876;HTU21D;52657;51.128;5.938;2023-06-10T09:25:11;33.73;25.00
65876;HTU21D;52657;51.128;5.938;2023-06-10T09:27:51;33.78;24.70
65876;HTU21D;52657;51.128;5.938;2023-06-10T09:30:30;33.94;24.33
65876;HTU21D;52657;51.128;5.938;2023-06-10T09:32:58;34.09;24.58
65876;HTU21D;52657;51.128;5.938;2023-06-10T09:35:29;34.10;24.93
65876;HTU21D;52657;51.128;5.938;2023-06-10T09:38:00;34.18;24.95
65876;HTU21D;52657;51.128;5.938;2023-06-10T09:40:26;34.27;25.17
65876;HTU21D;52657;51.128;5.938;2023-06-10T09:43:00;34.23;24.91
65876;HTU21D;52657;51.128;5.938;2023-06-10T09:45:30;34.27;24.76
65876;HTU21D;52657;51.128;5.938;2023-06-10T09:48:00;34.23;24.78
65876;HTU21D;52657;51.128;5.938;2023-06-10T09:50:25;34.07;24.91
65876;HTU21D;52657;51.128;5.938;2023-06-10T09:52:52;34.00;25.39
65876;HTU21D;52657;51.128;5.938;2023-06-10T09:55:18;33.96;25.13
65876;HTU21D;52657;51.128;5.938;2023-06-10T09:57:44;33.95;25.21
65876;HTU21D;52657;51.128;5.938;2023-06-10T10:00:14;34.06;24.72
65876;HTU21D;52657;51.128;5.938;2023-06-10T10:02:49;34.22;24.61
65876;HTU21D;52657;51.128;5.938;2023-06-10T10:05:16;34.23;24.32
65876;HTU21D;52657;51.128;5.938;2023-06-10T10:07:44;34.18;24.25
65876;HTU21D;52657;51.128;5.938;2023-06-10T10:10:12;34.20;24.51
65876;HTU21D;52657;51.128;5.938;2023-06-10T10:12:39;34.34;24.24
65876;HTU21D;52657;51.128;5.938;2023-06-10T10:15:09;34.39;24.17
65876;HTU21D;52657;51.128;5.938;2023-06-10T10:17:54;34.15;24.18
65876;HTU21D;52657;51.128;5.938;2023-06-10T10:20:27;33.91;24.82
65876;HTU21D;52657;51.128;5.938;2023-06-10T10:22:57;34.00;24.82
65876;HTU21D;52657;51.128;5.938;2023-06-10T10:25:28;34.07;24.36
65876;HTU21D;52657;51.128;5.938;2023-06-10T10:28:01;34.19;24.49
65876;HTU21D;52657;51.128;5.938;2023-06-10T10:30:30;34.24;23.66
65876;HTU21D;52657;51.128;5.938;2023-06-10T10:33:05;34.14;23.74
65876;HTU21D;52657;51.128;5.938;2023-06-10T10:35:33;34.02;23.96
65876;HTU21D;52657;51.128;5.938;2023-06-10T10:37:59;33.96;23.88
65876;HTU21D;52657;51.128;5.938;2023-06-10T10:40:28;33.93;24.28
65876;HTU21D;52657;51.128;5.938;2023-06-10T10:42:56;34.11;24.17
65876;HTU21D;52657;51.128;5.938;2023-06-10T10:45:23;34.25;23.10
65876;HTU21D;52657;51.128;5.938;2023-06-10T10:47:53;34.47;22.47
65876;HTU21D;52657;51.128;5.938;2023-06-10T10:50:21;34.39;22.00
65876;HTU21D;52657;51.128;5.938;2023-06-10T10:55:20;34.37;22.18
65876;HTU21D;52657;51.128;5.938;2023-06-10T10:58:14;34.24;22.31
65876;HTU21D;52657;51.128;5.938;2023-06-10T11:00:44;34.38;21.98
65876;HTU21D;52657;51.128;5.938;2023-06-10T11:03:15;34.51;22.25
65876;HTU21D;52657;51.128;5.938;2023-06-10T11:05:48;34.61;21.46
65876;HTU21D;52657;51.128;5.938;2023-06-10T11:10:59;34.88;21.14
65876;HTU21D;52657;51.128;5.938;2023-06-10T11:13:27;34.84;21.15
65876;HTU21D;52657;51.128;5.938;2023-06-10T11:15:57;34.79;21.14
65876;HTU21D;52657;51.128;5.938;2023-06-10T11:18:25;34.79;21.09
65876;HTU21D;52657;51.128;5.938;2023-06-10T11:21:02;34.88;20.96
65876;HTU21D;52657;51.128;5.938;2023-06-10T11:33:54;35.00;20.49
65876;HTU21D;52657;51.128;5.938;2023-06-10T11:36:21;35.11;20.40
65876;HTU21D;52657;51.128;5.938;2023-06-10T11:38:48;35.11;20.06
65876;HTU21D;52657;51.128;5.938;2023-06-10T11:41:14;35.03;19.92
65876;HTU21D;52657;51.128;5.938;2023-06-10T11:43:44;34.95;19.83
65876;HTU21D;52657;51.128;5.938;2023-06-10T11:46:15;34.94;19.86
65876;HTU21D;52657;51.128;5.938;2023-06-10T11:48:55;34.94;20.50
65876;HTU21D;52657;51.128;5.938;2023-06-10T11:51:34;34.89;20.73
65876;HTU21D;52657;51.128;5.938;2023-06-10T11:54:09;34.99;21.02
65876;HTU21D;52657;51.128;5.938;2023-06-10T11:56:35;35.12;20.54
65876;HTU21D;52657;51.128;5.938;2023-06-10T11:59:01;35.24;19.40
65876;HTU21D;52657;51.128;5.938;2023-06-10T12:01:35;35.21;19.00
65876;HTU21D;52657;51.128;5.938;2023-06-10T12:06:40;35.27;18.83
65876;HTU21D;52657;51.128;5.938;2023-06-10T12:09:13;35.21;19.06
65876;HTU21D;52657;51.128;5.938;2023-06-10T12:11:39;35.16;19.34
65876;HTU21D;52657;51.128;5.938;2023-06-10T12:14:05;35.24;19.13
65876;HTU21D;52657;51.128;5.938;2023-06-10T12:16:31;35.31;19.05
65876;HTU21D;52657;51.128;5.938;2023-06-10T12:19:04;35.24;17.72
65876;HTU21D;52657;51.128;5.938;2023-06-10T12:21:32;35.13;17.38
65876;HTU21D;52657;51.128;5.938;2023-06-10T12:24:10;35.19;17.38
65876;HTU21D;52657;51.128;5.938;2023-06-10T12:26:37;35.27;18.02
65876;HTU21D;52657;51.128;5.938;2023-06-10T12:29:18;35.23;17.80
65876;HTU21D;52657;51.128;5.938;2023-06-10T12:31:57;35.26;17.81
65876;HTU21D;52657;51.128;5.938;2023-06-10T12:34:34;35.29;17.77
65876;HTU21D;52657;51.128;5.938;2023-06-10T12:37:03;35.39;17.49
65876;HTU21D;52657;51.128;5.938;2023-06-10T12:39:31;35.52;17.58
65876;HTU21D;52657;51.128;5.938;2023-06-10T12:42:00;35.59;17.68
65876;HTU21D;52657;51.128;5.938;2023-06-10T12:44:33;35.66;16.66
65876;HTU21D;52657;51.128;5.938;2023-06-10T12:47:06;35.67;16.21
65876;HTU21D;52657;51.128;5.938;2023-06-10T12:49:32;35.58;16.12
65876;HTU21D;52657;51.128;5.938;2023-06-10T12:51:57;35.53;16.28
65876;HTU21D;52657;51.128;5.938;2023-06-10T12:54:23;35.50;16.25
65876;HTU21D;52657;51.128;5.938;2023-06-10T12:56:50;35.51;16.47
65876;HTU21D;52657;51.128;5.938;2023-06-10T12:59:19;35.62;16.41
65876;HTU21D;52657;51.128;5.938;2023-06-10T13:01:55;35.81;16.63
65876;HTU21D;52657;51.128;5.938;2023-06-10T13:04:33;35.95;16.89
65876;HTU21D;52657;51.128;5.938;2023-06-10T13:06:59;35.92;17.04
65876;HTU21D;52657;51.128;5.938;2023-06-10T13:09:24;35.84;17.38
65876;HTU21D;52657;51.128;5.938;2023-06-10T13:11:50;35.82;17.81
65876;HTU21D;52657;51.128;5.938;2023-06-10T13:14:20;35.81;18.35
65876;HTU21D;52657;51.128;5.938;2023-06-10T13:16:45;35.86;18.38
65876;HTU21D;52657;51.128;5.938;2023-06-10T13:19:11;35.90;18.65
65876;HTU21D;52657;51.128;5.938;2023-06-10T13:21:37;35.86;18.35
65876;HTU21D;52657;51.128;5.938;2023-06-10T13:24:04;35.74;18.09
65876;HTU21D;52657;51.128;5.938;2023-06-10T13:26:29;35.48;18.23
65876;HTU21D;52657;51.128;5.938;2023-06-10T13:28:55;35.22;18.66
65876;HTU21D;52657;51.128;5.938;2023-06-10T13:31:21;35.08;19.10
65876;HTU21D;52657;51.128;5.938;2023-06-10T13:33:46;34.95;19.57
65876;HTU21D;52657;51.128;5.938;2023-06-10T13:36:12;34.91;19.74
65876;HTU21D;52657;51.128;5.938;2023-06-10T13:38:38;34.76;20.07
65876;HTU21D;52657;51.128;5.938;2023-06-10T13:41:04;34.68;20.32
65876;HTU21D;52657;51.128;5.938;2023-06-10T13:43:29;34.68;20.44
65876;HTU21D;52657;51.128;5.938;2023-06-10T13:45:55;34.67;20.67
65876;HTU21D;52657;51.128;5.938;2023-06-10T13:48:21;34.74;20.82
65876;HTU21D;52657;51.128;5.938;2023-06-10T13:50:47;34.79;20.77
65876;HTU21D;52657;51.128;5.938;2023-06-10T13:53:12;34.90;20.53
65876;HTU21D;52657;51.128;5.938;2023-06-10T13:55:38;34.99;20.37
65876;HTU21D;52657;51.128;5.938;2023-06-10T13:58:04;34.99;20.65
65876;HTU21D;52657;51.128;5.938;2023-06-10T14:00:30;35.16;20.46
65876;HTU21D;52657;51.128;5.938;2023-06-10T14:02:56;35.21;20.31
65876;HTU21D;52657;51.128;5.938;2023-06-10T14:05:25;35.16;20.60
65876;HTU21D;52657;51.128;5.938;2023-06-10T14:07:54;35.30;20.88
65876;HTU21D;52657;51.128;5.938;2023-06-10T14:10:20;35.58;20.11
65876;HTU21D;52657;51.128;5.938;2023-06-10T14:12:45;35.71;18.73
65876;HTU21D;52657;51.128;5.938;2023-06-10T14:15:12;35.67;17.70
65876;HTU21D;52657;51.128;5.938;2023-06-10T14:17:37;35.69;17.43
65876;HTU21D;52657;51.128;5.938;2023-06-10T14:20:03;35.72;17.66
65876;HTU21D;52657;51.128;5.938;2023-06-10T14:22:29;35.78;18.22
65876;HTU21D;52657;51.128;5.938;2023-06-10T14:24:55;35.77;18.52
65876;HTU21D;52657;51.128;5.938;2023-06-10T14:27:21;35.77;18.84
65876;HTU21D;52657;51.128;5.938;2023-06-10T14:29:46;35.72;19.65
65876;HTU21D;52657;51.128;5.938;2023-06-10T14:32:12;35.74;19.83
65876;HTU21D;52657;51.128;5.938;2023-06-10T14:34:38;35.79;20.12
65876;HTU21D;52657;51.128;5.938;2023-06-10T14:37:04;35.74;20.37
65876;HTU21D;52657;51.128;5.938;2023-06-10T14:39:33;35.74;20.59
65876;HTU21D;52657;51.128;5.938;2023-06-10T14:41:58;35.68;20.77
65876;HTU21D;52657;51.128;5.938;2023-06-10T14:44:24;35.62;20.79
65876;HTU21D;52657;51.128;5.938;2023-06-10T14:46:50;35.47;20.34
65876;HTU21D;52657;51.128;5.938;2023-06-10T14:49:15;35.39;20.91
65876;HTU21D;52657;51.128;5.938;2023-06-10T14:51:41;35.33;20.90
65876;HTU21D;52657;51.128;5.938;2023-06-10T14:54:07;35.23;21.26
65876;HTU21D;52657;51.128;5.938;2023-06-10T14:56:32;35.10;21.24
65876;HTU21D;52657;51.128;5.938;2023-06-10T14:58:58;35.07;20.95
65876;HTU21D;52657;51.128;5.938;2023-06-10T15:01:24;34.98;20.55
65876;HTU21D;52657;51.128;5.938;2023-06-10T15:03:49;34.82;20.69
65876;HTU21D;52657;51.128;5.938;2023-06-10T15:06:15;34.81;20.90
65876;HTU21D;52657;51.128;5.938;2023-06-10T15:08:46;34.79;21.09
65876;HTU21D;52657;51.128;5.938;2023-06-10T15:11:14;34.93;21.11
65876;HTU21D;52657;51.128;5.938;2023-06-10T15:13:40;35.00;20.99
65876;HTU21D;52657;51.128;5.938;2023-06-10T15:16:06;35.10;20.79
65876;HTU21D;52657;51.128;5.938;2023-06-10T15:18:32;35.21;20.95
65876;HTU21D;52657;51.128;5.938;2023-06-10T15:20:58;35.18;21.03
65876;HTU21D;52657;51.128;5.938;2023-06-10T15:23:23;35.23;20.50
65876;HTU21D;52657;51.128;5.938;2023-06-10T15:25:52;35.18;20.69
65876;HTU21D;52657;51.128;5.938;2023-06-10T15:28:18;35.11;20.51
65876;HTU21D;52657;51.128;5.938;2023-06-10T15:30:43;35.10;20.19
65876;HTU21D;52657;51.128;5.938;2023-06-10T15:33:09;35.07;20.16
65876;HTU21D;52657;51.128;5.938;2023-06-10T15:35:35;35.06;19.99
65876;HTU21D;52657;51.128;5.938;2023-06-10T15:38:00;35.14;19.79
65876;HTU21D;52657;51.128;5.938;2023-06-10T15:40:26;34.97;20.15
65876;HTU21D;52657;51.128;5.938;2023-06-10T15:42:52;34.84;20.56
65876;HTU21D;52657;51.128;5.938;2023-06-10T15:45:18;34.76;20.69